createdAt,value
2019-05-29T00:02:26.039Z,62.96
2019-05-29T00:04:57.099Z,63.12
2019-05-29T00:07:28.209Z,63.54
2019-05-29T00:09:59.345Z,63.49
2019-05-29T00:12:30.325Z,63.47
2019-05-29T00:15:01.332Z,63.81
2019-05-29T00:17:32.452Z,64.06
2019-05-29T00:20:03.605Z,64.95
2019-05-29T00:22:34.602Z,64.73
2019-05-29T00:25:06.391Z,64.65
2019-05-29T00:27:37.405Z,64.36
2019-05-29T00:30:09.035Z,64.46
2019-05-29T00:32:40.075Z,64.79
2019-05-29T00:35:12.255Z,64.43
2019-05-29T00:37:43.419Z,63.84
2019-05-29T00:40:15.467Z,64.12
2019-05-29T00:42:46.502Z,63.38
2019-05-29T00:45:19.605Z,63.47
2019-05-29T00:47:50.630Z,63.50
2019-05-29T00:50:21.918Z,63.60
2019-05-29T00:52:53.523Z,63.55
2019-05-29T00:55:24.513Z,63.62
2019-05-29T00:57:55.610Z,63.63
2019-05-29T01:00:26.622Z,63.34
2019-05-29T01:02:57.719Z,63.67
2019-05-29T01:05:29.762Z,63.72
2019-05-29T01:08:00.774Z,64.11
2019-05-29T01:10:32.085Z,64.24
2019-05-29T01:13:03.115Z,64.46
2019-05-29T01:15:34.139Z,64.35
2019-05-29T01:18:05.267Z,64.45
2019-05-29T01:20:37.266Z,64.62
2019-05-29T01:23:08.279Z,64.50
2019-05-29T01:25:39.305Z,63.95
2019-05-29T01:28:10.359Z,64.22
2019-05-29T01:30:41.379Z,64.17
2019-05-29T01:33:16.825Z,64.32
2019-05-29T01:35:45.229Z,64.18
2019-05-29T01:38:17.174Z,64.99
2019-05-29T01:40:48.628Z,64.45
2019-05-29T01:43:19.644Z,64.19
2019-05-29T01:45:50.643Z,64.22
2019-05-29T01:48:22.162Z,64.15
2019-05-29T01:50:53.177Z,64.30
2019-05-29T01:53:24.318Z,64.03
2019-05-29T01:55:55.547Z,63.88
2019-05-29T01:58:26.556Z,63.95
2019-05-29T02:00:57.555Z,63.71
2019-05-29T02:03:28.565Z,63.76
2019-05-29T02:05:59.582Z,64.01
2019-05-29T02:08:30.603Z,63.89
2019-05-29T02:11:02.146Z,64.19
2019-05-29T02:13:33.162Z,63.84
2019-05-29T02:16:04.411Z,63.90
2019-05-29T02:18:35.413Z,64.34
2019-05-29T02:21:06.482Z,64.30
2019-05-29T02:23:37.493Z,63.86
2019-05-29T02:26:08.589Z,63.94
2019-05-29T02:28:39.620Z,63.83
2019-05-29T02:31:10.617Z,64.03
2019-05-29T02:33:41.636Z,64.06
2019-05-29T02:36:12.677Z,64.13
2019-05-29T02:38:43.694Z,64.18
2019-05-29T02:41:14.690Z,64.10
2019-05-29T02:43:45.705Z,64.02
2019-05-29T02:46:16.708Z,64.10
2019-05-29T02:48:48.776Z,64.17
2019-05-29T02:51:20.024Z,64.27
2019-05-29T02:53:51.124Z,64.40
2019-05-29T02:56:24.731Z,64.85
2019-05-29T02:58:56.119Z,64.79
2019-05-29T03:01:27.804Z,64.60
2019-05-29T03:03:59.365Z,64.73
2019-05-29T03:06:32.180Z,64.83
2019-05-29T03:09:06.444Z,64.65
2019-05-29T03:11:37.518Z,64.47
2019-05-29T03:14:08.601Z,64.43
2019-05-29T03:16:39.594Z,64.83
2019-05-29T03:19:10.662Z,64.71
2019-05-29T03:21:41.653Z,64.97
2019-05-29T03:24:12.659Z,65.11
2019-05-29T03:26:43.762Z,64.96
2019-05-29T03:29:14.768Z,64.84
2019-05-29T03:31:48.133Z,65.07
2019-05-29T03:34:18.776Z,65.24
2019-05-29T03:36:49.968Z,65.15
2019-05-29T03:39:20.986Z,65.30
2019-05-29T03:41:52.015Z,65.28
2019-05-29T03:44:23.665Z,65.18
2019-05-29T03:46:55.652Z,65.04
2019-05-29T03:49:26.895Z,65.52
2019-05-29T03:51:57.998Z,65.36
2019-05-29T03:54:30.605Z,65.48
2019-05-29T03:57:01.867Z,65.43
2019-05-29T03:59:33.022Z,65.82
2019-05-29T04:02:05.808Z,65.62
2019-05-29T04:04:38.205Z,66.02
2019-05-29T04:07:09.421Z,65.83
2019-05-29T04:09:40.544Z,65.97
2019-05-29T04:12:11.716Z,66.14
2019-05-29T04:14:43.410Z,65.90
2019-05-29T04:17:15.463Z,65.64
2019-05-29T04:19:46.839Z,65.73
2019-05-29T04:22:24.281Z,65.97
2019-05-29T04:24:57.185Z,66.01
2019-05-29T04:27:31.952Z,66.08
2019-05-29T04:30:05.018Z,66.02
2019-05-29T04:32:36.713Z,66.08
2019-05-29T04:35:08.324Z,66.18
2019-05-29T04:37:40.076Z,66.15
2019-05-29T04:40:12.173Z,66.14
2019-05-29T04:42:43.166Z,66.34
2019-05-29T04:45:14.511Z,66.58
2019-05-29T04:47:45.529Z,66.58
2019-05-29T04:50:16.980Z,66.44
2019-05-29T04:52:49.016Z,66.75
2019-05-29T04:55:20.103Z,66.55
2019-05-29T04:57:51.222Z,66.35
2019-05-29T05:00:22.242Z,66.31
2019-05-29T05:02:53.382Z,66.16
2019-05-29T05:05:24.827Z,66.25
2019-05-29T05:07:55.927Z,66.37
2019-05-29T05:10:38.035Z,66.32
2019-05-29T05:13:09.573Z,66.25
2019-05-29T05:15:40.778Z,67.01
2019-05-29T05:18:11.992Z,66.43
2019-05-29T05:20:42.998Z,65.99
2019-05-29T05:23:14.166Z,66.15
2019-05-29T05:25:45.190Z,65.95
2019-05-29T05:28:16.380Z,66.25
2019-05-29T05:30:47.390Z,66.48
2019-05-29T05:33:19.155Z,66.66
2019-05-29T05:35:50.166Z,66.62
2019-05-29T05:38:21.176Z,66.07
2019-05-29T05:40:52.347Z,66.08
2019-05-29T05:43:24.623Z,66.25
2019-05-29T05:45:55.737Z,66.44
2019-05-29T05:48:26.792Z,66.11
2019-05-29T05:50:57.839Z,66.37
2019-05-29T05:53:28.894Z,66.38
2019-05-29T05:55:59.915Z,66.38
2019-05-29T05:58:31.640Z,66.30
2019-05-29T06:01:02.646Z,66.18
2019-05-29T06:03:34.016Z,65.96
2019-05-29T06:06:05.176Z,65.81
2019-05-29T06:08:36.236Z,66.08
2019-05-29T06:11:08.541Z,66.01
2019-05-29T06:13:40.493Z,66.03
2019-05-29T06:16:12.454Z,65.81
2019-05-29T06:18:43.588Z,65.66
2019-05-29T06:21:14.975Z,65.79
2019-05-29T06:23:46.069Z,65.84
2019-05-29T06:26:17.127Z,65.97
2019-05-29T06:28:49.612Z,65.60
2019-05-29T06:31:20.648Z,65.55
2019-05-29T06:33:51.681Z,65.31
2019-05-29T06:36:23.311Z,65.61
2019-05-29T06:38:54.362Z,65.49
2019-05-29T06:41:25.919Z,65.49
2019-05-29T06:43:57.031Z,65.49
2019-05-29T06:46:28.142Z,65.48
2019-05-29T06:49:00.867Z,65.84
2019-05-29T06:51:32.235Z,65.32
2019-05-29T06:54:03.376Z,65.46
2019-05-29T06:56:35.466Z,65.49
2019-05-29T06:59:06.868Z,65.67
2019-05-29T07:01:39.295Z,65.18
2019-05-29T07:04:12.488Z,63.38
2019-05-29T07:06:43.450Z,64.58
2019-05-29T07:09:14.452Z,65.09
2019-05-29T07:11:47.444Z,65.58
2019-05-29T07:14:19.595Z,65.04
2019-05-29T07:16:56.077Z,65.08
2019-05-29T07:19:29.402Z,65.22
2019-05-29T07:21:56.213Z,65.63
2019-05-29T07:24:27.499Z,65.75
2019-05-29T07:26:58.586Z,66.07
2019-05-29T07:29:29.615Z,65.23
2019-05-29T07:32:00.708Z,65.71
2019-05-29T07:34:49.391Z,65.35
2019-05-29T07:37:04.578Z,65.36
2019-05-29T07:39:35.743Z,64.32
2019-05-29T07:42:07.034Z,63.47
2019-05-29T07:44:38.091Z,63.84
2019-05-29T07:47:10.062Z,64.40
2019-05-29T07:49:44.664Z,63.95
2019-05-29T07:52:14.141Z,64.29
2019-05-29T07:54:45.785Z,64.32
2019-05-29T07:57:16.986Z,64.61
2019-05-29T07:59:48.867Z,63.86
2019-05-29T08:02:20.133Z,63.92
2019-05-29T08:04:51.261Z,63.64
2019-05-29T08:07:22.529Z,63.28
2019-05-29T08:09:53.579Z,63.77
2019-05-29T08:12:24.809Z,63.75
2019-05-29T08:14:55.937Z,62.73
2019-05-29T08:17:27.476Z,62.76
2019-05-29T08:20:06.477Z,62.81
2019-05-29T08:22:34.428Z,63.15
2019-05-29T08:25:04.737Z,63.84
2019-05-29T08:27:35.787Z,63.93
2019-05-29T08:30:08.290Z,63.23
2019-05-29T08:32:40.697Z,63.17
2019-05-29T08:35:13.194Z,63.89
2019-05-29T08:37:44.980Z,64.07
2019-05-29T08:40:17.083Z,64.18
2019-05-29T08:42:49.327Z,63.50
2019-05-29T08:45:20.547Z,63.45
2019-05-29T08:47:51.979Z,63.35
2019-05-29T08:50:23.362Z,62.93
2019-05-29T08:52:54.484Z,62.74
2019-05-29T08:55:25.654Z,62.46
2019-05-29T08:57:57.004Z,60.93
2019-05-29T09:00:28.303Z,61.80
2019-05-29T09:02:59.509Z,62.44
2019-05-29T09:05:30.550Z,61.94
2019-05-29T09:08:01.674Z,62.00
2019-05-29T09:10:32.761Z,62.37
2019-05-29T09:13:05.268Z,62.15
2019-05-29T09:15:36.502Z,63.12
2019-05-29T09:18:07.710Z,64.40
2019-05-29T09:21:00.970Z,65.08
2019-05-29T09:23:12.742Z,64.71
2019-05-29T09:25:43.862Z,64.33
2019-05-29T09:28:18.366Z,64.71
2019-05-29T09:30:49.911Z,64.43
2019-05-29T09:33:21.866Z,65.20
2019-05-29T09:35:53.775Z,64.03
2019-05-29T09:38:25.121Z,64.42
2019-05-29T09:40:56.241Z,64.47
2019-05-29T09:43:30.655Z,64.30
2019-05-29T09:46:02.303Z,62.78
2019-05-29T09:48:48.514Z,62.57
2019-05-29T09:51:20.527Z,62.22
2019-05-29T09:53:38.489Z,63.27
2019-05-29T09:56:09.641Z,61.89
2019-05-29T09:58:40.664Z,61.78
2019-05-29T10:01:22.772Z,62.52
2019-05-29T10:03:44.732Z,61.74
2019-05-29T10:06:15.875Z,60.93
2019-05-29T10:08:46.873Z,59.60
2019-05-29T10:11:17.995Z,60.79
2019-05-29T10:13:50.170Z,60.49
2019-05-29T10:16:21.253Z,60.29
2019-05-29T10:18:54.453Z,60.11
2019-05-29T10:21:39.185Z,60.21
2019-05-29T10:23:59.600Z,58.57
2019-05-29T10:26:30.943Z,59.16
2019-05-29T10:29:08.212Z,59.46
2019-05-29T10:31:34.681Z,59.85
2019-05-29T10:34:05.822Z,58.50
2019-05-29T10:36:36.838Z,58.58
2019-05-29T10:39:12.779Z,58.43
2019-05-29T10:41:42.644Z,58.05
2019-05-29T10:44:13.723Z,58.90
2019-05-29T10:46:49.461Z,59.01
2019-05-29T10:49:20.338Z,58.07
2019-05-29T10:52:06.251Z,58.63
2019-05-29T10:54:24.042Z,58.85
2019-05-29T10:56:55.224Z,59.19
2019-05-29T10:59:26.275Z,58.18
2019-05-29T11:01:57.378Z,58.13
2019-05-29T11:04:28.369Z,57.92
2019-05-29T11:06:59.452Z,58.38
2019-05-29T11:09:43.437Z,59.25
2019-05-29T11:12:03.284Z,60.38
2019-05-29T11:14:34.278Z,59.77
2019-05-29T11:17:05.401Z,57.90
2019-05-29T11:19:36.479Z,59.24
2019-05-29T11:22:25.343Z,59.68
2019-05-29T11:24:40.188Z,58.45
2019-05-29T11:27:11.343Z,57.70
2019-05-29T11:29:42.334Z,58.27
2019-05-29T11:32:13.350Z,58.49
2019-05-29T11:34:44.448Z,58.20
2019-05-29T11:37:15.615Z,58.15
2019-05-29T11:39:46.796Z,60.27
2019-05-29T11:42:27.550Z,61.53
2019-05-29T11:44:50.885Z,62.07
2019-05-29T11:47:22.065Z,62.80
2019-05-29T11:49:53.265Z,63.04
2019-05-29T11:52:26.536Z,63.01
2019-05-29T11:54:59.999Z,63.01
2019-05-29T11:57:30.673Z,63.29
2019-05-29T12:00:16.489Z,62.98
2019-05-29T12:02:34.420Z,62.06
2019-05-29T12:05:07.219Z,61.63
2019-05-29T12:07:38.395Z,61.85
2019-05-29T12:10:10.543Z,61.63
2019-05-29T12:12:41.705Z,61.01
2019-05-29T12:15:17.584Z,61.26
2019-05-29T12:17:48.598Z,61.16
2019-05-29T12:20:28.979Z,61.29
2019-05-29T12:23:13.386Z,58.79
2019-05-29T12:25:26.163Z,59.42
2019-05-29T12:27:57.793Z,59.76
2019-05-29T12:30:31.456Z,57.07
2019-05-29T12:33:03.276Z,56.30
2019-05-29T12:35:34.376Z,54.38
2019-05-29T12:38:05.634Z,54.80
2019-05-29T12:40:36.816Z,55.65
2019-05-29T12:43:25.587Z,54.67
2019-05-29T12:45:40.699Z,53.71
2019-05-29T12:48:14.557Z,53.75
2019-05-29T12:50:44.566Z,53.55
2019-05-29T12:53:29.514Z,51.15
2019-05-29T12:55:48.291Z,52.11
2019-05-29T12:58:20.544Z,53.64
2019-05-29T13:00:51.967Z,53.80
2019-05-29T13:03:22.989Z,52.62
2019-05-29T13:05:54.181Z,53.63
2019-05-29T13:08:25.381Z,55.33
2019-05-29T13:10:56.425Z,55.82
2019-05-29T13:13:27.459Z,55.63
2019-05-29T13:16:00.849Z,55.82
2019-05-29T13:18:32.075Z,55.51
2019-05-29T13:21:03.220Z,56.14
2019-05-29T13:23:44.608Z,56.77
2019-05-29T13:26:07.071Z,57.32
2019-05-29T13:28:38.117Z,55.93
2019-05-29T13:31:09.224Z,56.22
2019-05-29T13:33:40.585Z,57.70
2019-05-29T13:36:11.650Z,57.72
2019-05-29T13:38:42.657Z,57.87
2019-05-29T13:41:13.737Z,57.92
2019-05-29T13:43:44.773Z,57.88
2019-05-29T13:46:15.818Z,58.44
2019-05-29T13:48:46.832Z,60.01
2019-05-29T13:51:17.995Z,60.61
2019-05-29T13:54:02.473Z,61.90
2019-05-29T13:56:24.341Z,61.76
2019-05-29T13:58:54.628Z,62.51
2019-05-29T14:01:25.875Z,62.91
2019-05-29T14:03:58.067Z,63.58
2019-05-29T14:06:29.369Z,64.07
2019-05-29T14:09:00.808Z,63.91
2019-05-29T14:11:33.713Z,63.45
2019-05-29T14:14:08.009Z,64.19
2019-05-29T14:16:38.719Z,64.18
2019-05-29T14:19:09.825Z,64.63
2019-05-29T14:21:40.919Z,64.57
2019-05-29T14:24:26.133Z,64.11
2019-05-29T14:26:44.965Z,64.14
2019-05-29T14:29:16.070Z,64.25
2019-05-29T14:31:47.070Z,64.51
2019-05-29T14:34:18.205Z,64.14
2019-05-29T14:36:50.453Z,63.76
2019-05-29T14:39:21.814Z,64.41
2019-05-29T14:41:52.967Z,64.21
2019-05-29T14:44:23.986Z,63.82
2019-05-29T14:46:55.211Z,63.49
2019-05-29T14:49:27.112Z,63.30
2019-05-29T14:51:58.164Z,62.34
2019-05-29T14:54:41.086Z,62.53
2019-05-29T14:57:09.174Z,61.46
2019-05-29T14:59:34.865Z,60.14
2019-05-29T15:02:15.237Z,59.80
2019-05-29T15:04:38.820Z,59.90
2019-05-29T15:07:09.947Z,59.95
2019-05-29T15:09:41.035Z,60.04
2019-05-29T15:12:12.166Z,58.32
2019-05-29T15:14:43.344Z,57.69
2019-05-29T15:17:15.462Z,57.18
2019-05-29T15:19:46.594Z,56.76
2019-05-29T15:22:17.616Z,56.79
2019-05-29T15:25:04.459Z,56.83
2019-05-29T15:27:23.582Z,57.23
2019-05-29T15:29:54.727Z,56.26
2019-05-29T15:32:25.735Z,55.37
2019-05-29T15:34:56.826Z,55.22
2019-05-29T15:37:27.826Z,54.73
2019-05-29T15:40:00.435Z,54.22
2019-05-29T15:42:31.533Z,53.09
2019-05-29T15:45:02.591Z,53.74
2019-05-29T15:47:33.584Z,53.54
2019-05-29T15:50:06.652Z,54.00
2019-05-29T15:52:37.833Z,53.78
2019-05-29T15:55:21.415Z,53.52
2019-05-29T15:57:41.954Z,53.74
2019-05-29T16:00:15.668Z,53.75
2019-05-29T16:02:49.034Z,53.49
2019-05-29T16:05:21.346Z,53.59
2019-05-29T16:07:52.409Z,53.75
2019-05-29T16:10:23.674Z,54.67
2019-05-29T16:12:54.815Z,54.90
2019-05-29T16:15:25.979Z,55.15
2019-05-29T16:17:56.991Z,55.99
2019-05-29T16:20:28.197Z,56.11
2019-05-29T16:22:59.306Z,56.49
2019-05-29T16:25:40.027Z,56.89
2019-05-29T16:28:03.359Z,56.69
2019-05-29T16:30:34.561Z,56.34
2019-05-29T16:33:05.771Z,56.37
2019-05-29T16:35:37.659Z,55.89
2019-05-29T16:38:08.755Z,54.71
2019-05-29T16:40:39.894Z,54.73
2019-05-29T16:43:12.316Z,54.91
2019-05-29T16:45:43.334Z,54.74
2019-05-29T16:48:14.634Z,54.36
2019-05-29T16:50:45.924Z,54.60
2019-05-29T16:53:17.065Z,54.32
2019-05-29T16:55:53.677Z,54.30
2019-05-29T16:58:21.299Z,53.80
2019-05-29T17:00:52.472Z,53.33
2019-05-29T17:03:23.913Z,54.30
2019-05-29T17:05:54.974Z,54.43
2019-05-29T17:08:26.020Z,54.96
2019-05-29T17:10:57.100Z,55.20
2019-05-29T17:13:28.101Z,55.29
2019-05-29T17:15:59.197Z,55.39
2019-05-29T17:18:30.270Z,55.64
2019-05-29T17:21:01.355Z,55.44
2019-05-29T17:23:32.360Z,55.61
2019-05-29T17:26:10.561Z,55.62
2019-05-29T17:28:36.078Z,55.99
2019-05-29T17:31:07.079Z,56.16
2019-05-29T17:33:38.154Z,55.40
2019-05-29T17:36:09.326Z,55.59
2019-05-29T17:38:40.530Z,55.89
2019-05-29T17:41:11.808Z,56.32
2019-05-29T17:43:42.845Z,55.86
2019-05-29T17:46:13.833Z,56.21
2019-05-29T17:48:44.847Z,55.94
2019-05-29T17:51:17.544Z,56.31
2019-05-29T17:53:49.666Z,56.57
2019-05-29T17:56:31.741Z,57.10
2019-05-29T17:58:54.207Z,56.61
2019-05-29T18:01:29.859Z,56.91
2019-05-29T18:03:59.253Z,57.02
2019-05-29T18:06:30.408Z,56.56
2019-05-29T18:09:01.552Z,56.67
2019-05-29T18:11:34.693Z,56.46
2019-05-29T18:14:07.691Z,56.43
2019-05-29T18:16:38.846Z,56.40
2019-05-29T18:19:10.084Z,56.89
2019-05-29T18:21:41.105Z,56.86
2019-05-29T18:24:12.390Z,56.48
2019-05-29T18:26:47.314Z,56.51
2019-05-29T18:29:16.231Z,56.86
2019-05-29T18:31:47.250Z,57.31
2019-05-29T18:34:18.767Z,57.97
2019-05-29T18:36:49.918Z,58.48
2019-05-29T18:39:22.176Z,57.69
2019-05-29T18:41:53.210Z,58.17
2019-05-29T18:44:24.844Z,57.81
2019-05-29T18:46:56.385Z,57.63
2019-05-29T18:49:28.483Z,57.49
2019-05-29T18:52:00.674Z,57.56
2019-05-29T18:54:33.142Z,57.98
2019-05-29T18:57:15.059Z,58.18
2019-05-29T18:59:37.145Z,58.79
2019-05-29T19:02:08.890Z,59.85
2019-05-29T19:04:39.971Z,60.33
2019-05-29T19:07:11.053Z,60.58
2019-05-29T19:09:42.115Z,60.78
2019-05-29T19:12:13.164Z,60.80
2019-05-29T19:14:44.182Z,61.10
2019-05-29T19:17:15.241Z,61.19
2019-05-29T19:19:46.247Z,61.52
2019-05-29T19:22:17.289Z,61.58
2019-05-29T19:24:48.359Z,61.67
2019-05-29T19:27:32.101Z,62.05
2019-05-29T19:29:52.077Z,62.87
2019-05-29T19:32:23.395Z,63.55
2019-05-29T19:34:54.450Z,63.56
2019-05-29T19:37:27.830Z,63.28
2019-05-29T19:39:59.302Z,62.81
2019-05-29T19:42:30.448Z,62.50
2019-05-29T19:45:01.771Z,62.36
2019-05-29T19:47:32.848Z,62.94
2019-05-29T19:50:04.527Z,63.30
2019-05-29T19:52:36.175Z,63.09
2019-05-29T19:55:07.692Z,63.27
2019-05-29T19:57:54.905Z,63.47
2019-05-29T20:00:13.240Z,63.26
2019-05-29T20:02:44.420Z,63.90
2019-05-29T20:05:16.379Z,64.63
2019-05-29T20:07:47.506Z,64.77
2019-05-29T20:10:18.674Z,63.84
2019-05-29T20:12:49.714Z,64.02
2019-05-29T20:15:22.024Z,63.83
2019-05-29T20:17:53.153Z,63.73
2019-05-29T20:20:24.290Z,63.71
2019-05-29T20:22:55.381Z,63.87
2019-05-29T20:25:26.484Z,64.04
2019-05-29T20:28:05.801Z,63.89
2019-05-29T20:30:30.473Z,63.79
2019-05-29T20:33:01.684Z,64.27
2019-05-29T20:35:32.833Z,63.98
2019-05-29T20:38:06.516Z,64.12
2019-05-29T20:40:37.305Z,64.48
2019-05-29T20:43:08.564Z,64.43
2019-05-29T20:45:39.857Z,64.36
2019-05-29T20:48:11.253Z,65.20
2019-05-29T20:50:43.329Z,64.60
2019-05-29T20:53:15.404Z,65.03
2019-05-29T20:55:46.436Z,65.07
2019-05-29T20:58:24.488Z,65.49
2019-05-29T21:00:50.666Z,65.15
2019-05-29T21:03:22.117Z,65.31
2019-05-29T21:05:53.168Z,64.61
2019-05-29T21:08:24.226Z,64.68
2019-05-29T21:10:55.325Z,64.86
2019-05-29T21:13:26.374Z,65.34
2019-05-29T21:15:57.428Z,65.68
2019-05-29T21:18:28.459Z,65.41
2019-05-29T21:20:59.579Z,65.42
2019-05-29T21:23:30.627Z,65.38
2019-05-29T21:26:01.686Z,66.27
2019-05-29T21:28:41.775Z,66.10
2019-05-29T21:31:05.642Z,66.56
2019-05-29T21:33:38.738Z,66.65
2019-05-29T21:36:11.651Z,66.69
2019-05-29T21:38:42.765Z,66.57
2019-05-29T21:41:13.895Z,66.23
2019-05-29T21:43:44.993Z,65.95
2019-05-29T21:46:16.025Z,65.95
2019-05-29T21:48:47.504Z,65.35
2019-05-29T21:51:19.680Z,65.43
2019-05-29T21:53:52.013Z,65.27
2019-05-29T21:56:23.079Z,65.43
2019-05-29T21:59:03.494Z,65.76
2019-05-29T22:01:27.568Z,66.42
2019-05-29T22:03:58.750Z,66.44
2019-05-29T22:06:29.892Z,66.21
2019-05-29T22:09:01.017Z,66.32
2019-05-29T22:11:33.826Z,66.22
2019-05-29T22:14:05.122Z,65.97
2019-05-29T22:16:36.216Z,65.93
2019-05-29T22:19:07.361Z,66.01
2019-05-29T22:21:38.374Z,66.50
2019-05-29T22:24:09.443Z,66.24
2019-05-29T22:26:40.566Z,66.16
2019-05-29T22:29:17.952Z,65.72
2019-05-29T22:31:44.413Z,66.18
2019-05-29T22:34:15.442Z,66.11
2019-05-29T22:36:46.443Z,65.96
2019-05-29T22:39:17.525Z,65.72
2019-05-29T22:41:48.570Z,65.24
2019-05-29T22:44:19.582Z,65.84
2019-05-29T22:46:51.640Z,66.42
2019-05-29T22:49:22.666Z,66.57
2019-05-29T22:51:53.754Z,66.36
2019-05-29T22:54:24.787Z,66.29
2019-05-29T22:56:55.910Z,66.06
2019-05-29T22:59:31.940Z,66.03
2019-05-29T23:02:00.368Z,65.96
2019-05-29T23:04:31.515Z,65.82
2019-05-29T23:07:02.661Z,65.35
2019-05-29T23:09:33.748Z,65.49
2019-05-29T23:12:04.955Z,65.55
2019-05-29T23:14:36.243Z,65.48
2019-05-29T23:17:07.323Z,64.54
2019-05-29T23:19:38.829Z,64.14
2019-05-29T23:22:09.855Z,64.51
2019-05-29T23:24:40.861Z,64.72
2019-05-29T23:27:11.889Z,64.55
2019-05-29T23:29:48.822Z,64.57
2019-05-29T23:32:15.937Z,65.05
2019-05-29T23:34:47.022Z,65.43
2019-05-29T23:37:18.154Z,65.21
2019-05-29T23:39:49.249Z,64.91
2019-05-29T23:42:22.583Z,64.69
2019-05-29T23:44:54.162Z,66.04
2019-05-29T23:47:26.506Z,65.67
2019-05-29T23:49:57.590Z,65.83
2019-05-29T23:52:28.694Z,66.08
2019-05-29T23:54:59.929Z,66.58
2019-05-29T23:57:31.013Z,66.87
